createdAt,value
2023-03-23T00:00:01.761Z,99.99
2023-03-23T00:01:01.772Z,99.99
2023-03-23T00:02:01.753Z,99.99
2023-03-23T00:03:01.750Z,99.99
2023-03-23T00:04:01.788Z,99.99
2023-03-23T00:05:01.755Z,99.99
2023-03-23T00:06:01.684Z,99.99
2023-03-23T00:07:01.755Z,99.99
2023-03-23T00:08:01.676Z,99.99
2023-03-23T00:09:01.729Z,99.99
2023-03-23T00:10:01.704Z,99.99
2023-03-23T00:11:01.664Z,99.99
2023-03-23T00:12:01.613Z,99.99
2023-03-23T00:13:01.630Z,99.99
2023-03-23T00:14:01.601Z,99.99
2023-03-23T00:15:01.618Z,99.99
2023-03-23T00:16:04.335Z,99.99
2023-03-23T00:17:01.721Z,99.99
2023-03-23T00:18:01.583Z,99.99
2023-03-23T00:19:01.550Z,99.99
2023-03-23T00:20:01.545Z,99.99
2023-03-23T00:21:01.548Z,99.99
2023-03-23T00:22:01.563Z,99.99
2023-03-23T00:23:01.560Z,99.99
2023-03-23T00:24:01.512Z,99.99
2023-03-23T00:25:01.537Z,99.99
2023-03-23T00:26:01.502Z,99.99
2023-03-23T00:27:01.460Z,99.99
2023-03-23T00:28:01.445Z,99.99
2023-03-23T00:29:01.483Z,99.99
2023-03-23T00:30:01.431Z,99.99
2023-03-23T00:31:01.430Z,99.99
2023-03-23T00:32:01.437Z,99.99
2023-03-23T00:33:01.457Z,99.99
2023-03-23T00:34:01.417Z,99.99
2023-03-23T00:35:01.396Z,99.99
2023-03-23T00:36:01.429Z,99.99
2023-03-23T00:37:01.367Z,99.99
2023-03-23T00:38:01.348Z,99.99
2023-03-23T00:39:01.350Z,99.99
2023-03-23T00:40:01.364Z,99.99
2023-03-23T00:41:01.310Z,99.99
2023-03-23T00:42:01.341Z,99.99
2023-03-23T00:43:01.297Z,99.99
2023-03-23T00:44:01.293Z,99.99
2023-03-23T00:45:01.325Z,99.99
2023-03-23T00:46:01.279Z,99.99
2023-03-23T00:47:01.279Z,99.99
2023-03-23T00:48:01.263Z,99.99
2023-03-23T00:49:01.243Z,99.99
2023-03-23T00:50:01.236Z,99.99
2023-03-23T00:51:01.208Z,99.99
2023-03-23T00:52:01.217Z,99.99
2023-03-23T00:53:01.226Z,99.99
2023-03-23T00:54:01.191Z,99.99
2023-03-23T00:55:01.206Z,99.99
2023-03-23T00:56:01.183Z,99.99
2023-03-23T00:57:01.146Z,99.99
2023-03-23T00:58:01.148Z,99.99
2023-03-23T00:59:01.155Z,99.99
2023-03-23T01:00:05.767Z,99.99
2023-03-23T01:01:01.109Z,99.99
2023-03-23T01:02:01.105Z,99.99
2023-03-23T01:03:01.093Z,99.99
2023-03-23T01:04:01.093Z,99.99
2023-03-23T01:05:01.248Z,99.99
2023-03-23T01:06:01.068Z,99.99
2023-03-23T01:07:01.043Z,99.99
2023-03-23T01:08:01.040Z,99.99
2023-03-23T01:09:01.042Z,99.99
2023-03-23T01:10:01.019Z,99.99
2023-03-23T01:11:01.043Z,99.99
2023-03-23T01:12:01.020Z,99.99
2023-03-23T01:13:00.972Z,99.99
2023-03-23T01:14:00.984Z,99.99
2023-03-23T01:15:00.978Z,99.99
2023-03-23T01:16:00.957Z,99.99
2023-03-23T01:17:00.936Z,99.99
2023-03-23T01:18:00.950Z,99.99
2023-03-23T01:19:00.929Z,99.99
2023-03-23T01:20:00.937Z,99.99
2023-03-23T01:21:00.893Z,99.99
2023-03-23T01:22:01.153Z,99.99
2023-03-23T01:23:00.864Z,99.99
2023-03-23T01:24:01.074Z,99.99
2023-03-23T01:25:00.853Z,99.99
2023-03-23T01:26:00.885Z,99.99
2023-03-23T01:27:00.856Z,99.99
2023-03-23T01:28:00.856Z,99.99
2023-03-23T01:29:00.842Z,99.99
2023-03-23T01:30:00.907Z,99.99
2023-03-23T01:31:00.783Z,99.99
2023-03-23T01:32:00.786Z,99.99
2023-03-23T01:33:00.772Z,99.99
2023-03-23T01:34:00.774Z,99.99
2023-03-23T01:35:00.753Z,99.99
2023-03-23T01:36:00.823Z,99.99
2023-03-23T01:37:00.719Z,99.99
2023-03-23T01:38:00.789Z,99.99
2023-03-23T01:39:00.719Z,99.99
2023-03-23T01:40:00.714Z,99.99
2023-03-23T01:41:00.701Z,99.99
2023-03-23T01:42:00.706Z,99.99
2023-03-23T01:43:00.673Z,99.99
2023-03-23T01:44:00.693Z,99.99
2023-03-23T01:45:00.647Z,99.99
2023-03-23T01:46:00.646Z,99.99
2023-03-23T01:47:00.651Z,99.99
2023-03-23T01:48:00.735Z,99.99
2023-03-23T01:49:00.686Z,99.99
2023-03-23T01:50:00.592Z,99.99
2023-03-23T01:51:00.576Z,99.99
2023-03-23T01:52:00.583Z,99.99
2023-03-23T01:53:00.568Z,99.99
2023-03-23T01:54:00.552Z,99.99
2023-03-23T01:55:00.580Z,99.99
2023-03-23T01:56:00.554Z,99.99
2023-03-23T01:57:00.537Z,99.88
2023-03-23T01:58:00.565Z,99.98
2023-03-23T01:59:00.524Z,99.68
2023-03-23T02:00:00.522Z,99.37
2023-03-23T02:01:00.478Z,99.52
2023-03-23T02:02:00.510Z,99.32
2023-03-23T02:03:00.458Z,98.61
2023-03-23T02:04:00.455Z,98.20
2023-03-23T02:05:00.477Z,98.10
2023-03-23T02:06:00.461Z,98.20
2023-03-23T02:07:00.408Z,98.20
2023-03-23T02:08:00.418Z,97.99
2023-03-23T02:09:00.471Z,98.10
2023-03-23T02:10:00.387Z,97.58
2023-03-23T02:11:00.401Z,97.54
2023-03-23T02:12:00.403Z,97.49
2023-03-23T02:13:00.347Z,97.69
2023-03-23T02:14:00.361Z,97.58
2023-03-23T02:15:00.343Z,97.69
2023-03-23T02:16:00.324Z,97.33
2023-03-23T02:17:00.340Z,97.03
2023-03-23T02:18:00.346Z,96.72
2023-03-23T02:19:00.287Z,96.72
2023-03-23T02:20:00.308Z,96.21
2023-03-23T02:21:00.295Z,96.42
2023-03-23T02:22:00.302Z,96.51
2023-03-23T02:23:00.264Z,96.31
2023-03-23T02:24:00.241Z,95.70
2023-03-23T02:25:00.217Z,95.70
2023-03-23T02:26:00.230Z,95.60
2023-03-23T02:27:00.253Z,95.50
2023-03-23T02:28:00.199Z,95.80
2023-03-23T02:29:00.170Z,95.70
2023-03-23T02:30:00.202Z,95.60
2023-03-23T02:31:00.173Z,95.90
2023-03-23T02:32:00.152Z,96.31
2023-03-23T02:33:00.144Z,96.31
2023-03-23T02:34:00.184Z,95.90
2023-03-23T02:35:00.121Z,95.90
2023-03-23T02:36:00.251Z,96.01
2023-03-23T02:37:00.129Z,95.70
2023-03-23T02:38:00.099Z,95.80
2023-03-23T02:39:00.098Z,95.90
2023-03-23T02:40:00.107Z,95.50
2023-03-23T02:41:00.209Z,95.39
2023-03-23T02:42:00.109Z,95.29
2023-03-23T02:43:00.039Z,95.50
2023-03-23T02:44:00.033Z,95.50
2023-03-23T02:45:00.032Z,95.60
2023-03-23T02:46:00.009Z,95.70
2023-03-23T02:47:00.055Z,95.70
2023-03-23T02:47:59.984Z,95.90
2023-03-23T02:48:59.978Z,95.80
2023-03-23T02:49:59.960Z,95.90
2023-03-23T02:50:59.956Z,95.80
2023-03-23T02:51:59.947Z,95.70
2023-03-23T02:52:59.953Z,95.50
2023-03-23T02:53:59.940Z,95.50
2023-03-23T02:54:59.939Z,95.60
2023-03-23T02:55:59.911Z,95.70
2023-03-23T02:56:59.879Z,95.80
2023-03-23T02:57:59.944Z,95.60
2023-03-23T02:58:59.858Z,95.70
2023-03-23T02:59:59.910Z,95.60
2023-03-23T03:00:59.839Z,95.29
2023-03-23T03:01:59.827Z,95.29
2023-03-23T03:02:59.819Z,95.60
2023-03-23T03:03:59.847Z,95.39
2023-03-23T03:04:59.790Z,95.09
2023-03-23T03:05:59.795Z,95.04
2023-03-23T03:06:59.805Z,95.15
2023-03-23T03:07:59.804Z,94.23
2023-03-23T03:08:59.749Z,94.23
2023-03-23T03:09:59.756Z,94.33
2023-03-23T03:10:59.732Z,94.64
2023-03-23T03:11:59.754Z,94.43
2023-03-23T03:12:59.726Z,94.12
2023-03-23T03:13:59.722Z,93.92
2023-03-23T03:14:59.690Z,94.23
2023-03-23T03:15:59.707Z,94.02
2023-03-23T03:16:59.681Z,94.02
2023-03-23T03:17:59.654Z,94.23
2023-03-23T03:19:00.039Z,94.43
2023-03-23T03:19:59.647Z,94.23
2023-03-23T03:20:59.618Z,94.53
2023-03-23T03:21:59.644Z,94.43
2023-03-23T03:23:00.219Z,93.92
2023-03-23T03:23:59.644Z,93.71
2023-03-23T03:24:59.586Z,93.67
2023-03-23T03:25:59.585Z,93.67
2023-03-23T03:26:59.574Z,93.88
2023-03-23T03:27:59.752Z,93.62
2023-03-23T03:28:59.534Z,93.82
2023-03-23T03:29:59.563Z,93.26
2023-03-23T03:30:59.523Z,93.16
2023-03-23T03:31:59.518Z,93.06
2023-03-23T03:32:59.499Z,93.26
2023-03-23T03:33:59.509Z,92.96
2023-03-23T03:34:59.509Z,93.06
2023-03-23T03:35:59.510Z,93.06
2023-03-23T03:36:59.457Z,93.06
2023-03-23T03:37:59.456Z,93.37
2023-03-23T03:38:59.442Z,93.26
2023-03-23T03:40:00.362Z,93.16
2023-03-23T03:40:59.422Z,93.16
2023-03-23T03:41:59.412Z,93.16
2023-03-23T03:43:00.008Z,93.06
2023-03-23T03:43:59.403Z,93.06
2023-03-23T03:44:59.375Z,92.76
2023-03-23T03:45:59.996Z,92.96
2023-03-23T03:46:59.375Z,92.76
2023-03-23T03:47:59.354Z,92.76
2023-03-23T03:48:59.339Z,93.06
2023-03-23T03:49:59.516Z,93.26
2023-03-23T03:50:59.316Z,93.37
2023-03-23T03:51:59.317Z,93.16
2023-03-23T03:52:59.522Z,93.06
2023-03-23T03:53:59.338Z,93.16
2023-03-23T03:54:59.299Z,93.26
2023-03-23T03:55:59.915Z,93.26
2023-03-23T03:56:59.252Z,93.16
2023-03-23T03:57:59.405Z,93.37
2023-03-23T03:58:59.224Z,93.37
2023-03-23T03:59:59.568Z,93.26
2023-03-23T04:00:59.243Z,93.47
2023-03-23T04:01:59.196Z,93.67
2023-03-23T04:02:59.198Z,93.57
2023-03-23T04:03:59.216Z,93.37
2023-03-23T04:04:59.156Z,93.37
2023-03-23T04:05:59.222Z,93.57
2023-03-23T04:06:59.157Z,93.57
2023-03-23T04:08:09.307Z,93.47
2023-03-23T04:09:07.633Z,93.06
2023-03-23T04:09:59.121Z,93.26
2023-03-23T04:10:59.222Z,93.06
2023-03-23T04:11:59.191Z,93.16
2023-03-23T04:12:59.093Z,93.16
2023-03-23T04:13:59.146Z,93.16
2023-03-23T04:14:59.065Z,92.86
2023-03-23T04:16:10.046Z,93.06
2023-03-23T04:16:59.087Z,93.26
2023-03-23T04:17:59.093Z,93.16
2023-03-23T04:18:59.042Z,93.37
2023-03-23T04:19:59.112Z,93.77
2023-03-23T04:21:01.344Z,93.88
2023-03-23T04:21:59.014Z,93.57
2023-03-23T04:22:58.984Z,93.26
2023-03-23T04:23:58.990Z,93.26
2023-03-23T04:24:58.987Z,93.37
2023-03-23T04:25:58.960Z,93.37
2023-03-23T04:26:58.946Z,93.16
2023-03-23T04:28:01.077Z,92.96
2023-03-23T04:28:58.911Z,93.26
2023-03-23T04:29:59.508Z,92.86
2023-03-23T04:30:58.894Z,92.76
2023-03-23T04:31:58.958Z,93.06
2023-03-23T04:32:59.060Z,92.86
2023-03-23T04:34:00.690Z,92.86
2023-03-23T04:34:58.885Z,92.35
2023-03-23T04:35:58.918Z,92.45
2023-03-23T04:36:58.852Z,92.65
2023-03-23T04:37:58.832Z,92.76
2023-03-23T04:38:58.875Z,92.55
2023-03-23T04:39:58.859Z,92.86
2023-03-23T04:40:58.813Z,92.76
2023-03-23T04:41:58.807Z,92.55
2023-03-23T04:42:58.792Z,92.76
2023-03-23T04:43:58.769Z,92.55
2023-03-23T04:44:58.801Z,92.65
2023-03-23T04:45:58.791Z,92.65
2023-03-23T04:46:58.740Z,92.55
2023-03-23T04:47:59.508Z,92.65
2023-03-23T04:48:58.708Z,92.55
2023-03-23T04:49:58.704Z,92.55
2023-03-23T04:50:58.730Z,92.14
2023-03-23T04:51:58.684Z,92.45
2023-03-23T04:52:59.006Z,92.35
2023-03-23T04:53:58.698Z,92.24
2023-03-23T04:54:58.754Z,92.24
2023-03-23T04:55:58.698Z,92.14
2023-03-23T04:56:58.656Z,91.94
2023-03-23T04:57:58.626Z,91.94
2023-03-23T04:58:58.606Z,91.74
2023-03-23T04:59:58.640Z,91.74
2023-03-23T05:00:58.650Z,91.74
2023-03-23T05:02:14.557Z,91.43
2023-03-23T05:02:58.652Z,91.43
2023-03-23T05:03:58.516Z,91.53
2023-03-23T05:04:59.430Z,91.74
2023-03-23T05:05:58.550Z,91.63
2023-03-23T05:06:58.541Z,91.74
2023-03-23T05:07:58.482Z,91.53
2023-03-23T05:08:58.458Z,91.63
2023-03-23T05:09:58.484Z,91.74
2023-03-23T05:10:58.505Z,91.53
2023-03-23T05:11:58.553Z,91.33
2023-03-23T05:12:58.489Z,91.53
2023-03-23T05:13:58.398Z,91.74
2023-03-23T05:14:58.550Z,91.33
2023-03-23T05:15:58.372Z,91.53
2023-03-23T05:16:58.426Z,91.33
2023-03-23T05:17:58.508Z,91.53
2023-03-23T05:18:58.357Z,91.22
2023-03-23T05:19:58.339Z,91.12
2023-03-23T05:20:58.369Z,91.43
2023-03-23T05:21:58.324Z,91.63
2023-03-23T05:22:58.348Z,91.63
2023-03-23T05:23:58.292Z,91.53
2023-03-23T05:24:58.315Z,91.43
2023-03-23T05:25:58.343Z,91.43
2023-03-23T05:26:58.266Z,91.33
2023-03-23T05:27:58.259Z,91.63
2023-03-23T05:28:58.266Z,91.53
2023-03-23T05:29:58.243Z,91.63
2023-03-23T05:30:58.261Z,91.63
2023-03-23T05:31:58.198Z,91.63
2023-03-23T05:32:58.205Z,91.43
2023-03-23T05:33:58.178Z,91.53
2023-03-23T05:34:58.680Z,91.63
2023-03-23T05:35:58.254Z,91.83
2023-03-23T05:36:58.235Z,91.43
2023-03-23T05:37:58.147Z,91.53
2023-03-23T05:38:58.188Z,91.53
2023-03-23T05:39:58.141Z,90.92
2023-03-23T05:40:58.141Z,90.51
2023-03-23T05:41:58.123Z,90.41
2023-03-23T05:42:58.096Z,90.00
2023-03-23T05:43:58.068Z,90.41
2023-03-23T05:44:58.070Z,90.31
2023-03-23T05:45:58.236Z,90.41
2023-03-23T05:46:58.038Z,90.51
2023-03-23T05:47:58.032Z,90.81
2023-03-23T05:48:58.033Z,90.71
2023-03-23T05:49:58.038Z,90.71
2023-03-23T05:50:58.037Z,91.02
2023-03-23T05:51:58.101Z,91.02
2023-03-23T05:52:57.992Z,90.92
2023-03-23T05:53:57.981Z,90.61
2023-03-23T05:54:57.962Z,90.36
2023-03-23T05:55:57.949Z,90.47
2023-03-23T05:56:57.960Z,90.06
2023-03-23T05:57:58.006Z,90.16
2023-03-23T05:58:57.924Z,90.06
2023-03-23T05:59:57.921Z,90.06
2023-03-23T06:00:57.946Z,90.16
2023-03-23T06:01:57.925Z,90.16
2023-03-23T06:02:57.882Z,90.06
2023-03-23T06:03:59.287Z,90.16
2023-03-23T06:04:57.903Z,90.47
2023-03-23T06:05:57.895Z,90.57
2023-03-23T06:06:58.230Z,90.16
2023-03-23T06:07:57.819Z,90.26
2023-03-23T06:08:57.844Z,90.06
2023-03-23T06:09:57.931Z,89.96
2023-03-23T06:10:57.809Z,89.75
2023-03-23T06:11:57.804Z,89.86
2023-03-23T06:12:57.911Z,89.86
2023-03-23T06:13:57.939Z,90.06
2023-03-23T06:14:57.749Z,89.65
2023-03-23T06:15:58.062Z,89.86
2023-03-23T06:16:57.799Z,89.55
2023-03-23T06:17:57.996Z,89.86
2023-03-23T06:18:57.731Z,89.86
2023-03-23T06:19:57.728Z,90.06
2023-03-23T06:20:58.320Z,90.26
2023-03-23T06:21:57.708Z,90.06
2023-03-23T06:22:57.691Z,89.86
2023-03-23T06:23:57.639Z,89.96
2023-03-23T06:24:57.731Z,89.96
2023-03-23T06:26:04.536Z,89.96
2023-03-23T06:26:57.693Z,90.16
2023-03-23T06:27:57.626Z,90.26
2023-03-23T06:28:57.603Z,90.36
2023-03-23T06:29:57.636Z,90.06
2023-03-23T06:30:57.615Z,90.26
2023-03-23T06:31:57.832Z,90.26
2023-03-23T06:32:57.648Z,90.06
2023-03-23T06:33:57.733Z,90.26
2023-03-23T06:34:57.547Z,90.16
2023-03-23T06:35:57.570Z,89.96
2023-03-23T06:36:57.525Z,90.47
2023-03-23T06:37:57.511Z,90.06
2023-03-23T06:38:57.500Z,90.26
2023-03-23T06:39:57.477Z,89.55
2023-03-23T06:40:57.529Z,89.55
2023-03-23T06:41:57.496Z,88.63
2023-03-23T06:42:57.561Z,88.28
2023-03-23T06:43:58.287Z,88.49
2023-03-23T06:44:57.527Z,88.18
2023-03-23T06:45:57.457Z,87.77
2023-03-23T06:46:57.443Z,87.47
2023-03-23T06:47:57.584Z,87.32
2023-03-23T06:48:57.445Z,87.63
2023-03-23T06:49:57.891Z,87.23
2023-03-23T06:50:58.200Z,87.37
2023-03-23T06:51:57.372Z,87.67
2023-03-23T06:52:57.359Z,87.37
2023-03-23T06:53:57.471Z,87.67
2023-03-23T06:54:57.379Z,87.57
2023-03-23T06:55:57.382Z,87.37
2023-03-23T06:56:57.423Z,87.88
2023-03-23T06:57:57.415Z,87.67
2023-03-23T06:58:57.307Z,87.37
2023-03-23T06:59:57.272Z,87.57
2023-03-23T07:00:57.297Z,87.47
2023-03-23T07:01:57.905Z,87.57
2023-03-23T07:02:57.279Z,87.98
2023-03-23T07:03:57.261Z,87.98
2023-03-23T07:04:57.243Z,88.08
2023-03-23T07:05:57.234Z,88.08
2023-03-23T07:06:57.236Z,87.98
2023-03-23T07:07:57.208Z,87.88
2023-03-23T07:08:57.215Z,87.98
2023-03-23T07:09:57.323Z,88.28
2023-03-23T07:10:58.595Z,88.28
2023-03-23T07:11:57.204Z,88.28
2023-03-23T07:12:57.193Z,88.18
2023-03-23T07:13:57.197Z,87.98
2023-03-23T07:14:57.575Z,87.67
2023-03-23T07:15:57.133Z,87.88
2023-03-23T07:16:57.160Z,87.77
2023-03-23T07:17:57.106Z,87.73
2023-03-23T07:18:57.166Z,87.32
2023-03-23T07:19:57.142Z,86.82
2023-03-23T07:20:57.097Z,86.92
2023-03-23T07:21:57.054Z,86.41
2023-03-23T07:22:57.049Z,86.30
2023-03-23T07:23:57.045Z,86.00
2023-03-23T07:24:57.237Z,85.90
2023-03-23T07:25:57.055Z,85.66
2023-03-23T07:26:57.008Z,85.96
2023-03-23T07:27:57.015Z,86.37
2023-03-23T07:28:58.009Z,86.06
2023-03-23T07:29:57.033Z,86.16
2023-03-23T07:30:57.254Z,85.86
2023-03-23T07:31:57.498Z,86.16
2023-03-23T07:32:56.954Z,86.06
2023-03-23T07:33:57.900Z,85.86
2023-03-23T07:34:56.977Z,85.66
2023-03-23T07:35:57.003Z,85.66
2023-03-23T07:36:56.912Z,85.55
2023-03-23T07:37:57.139Z,85.66
2023-03-23T07:38:56.936Z,85.25
2023-03-23T07:39:57.013Z,85.14
2023-03-23T07:40:57.021Z,85.35
2023-03-23T07:41:56.849Z,85.45
2023-03-23T07:42:57.396Z,85.55
2023-03-23T07:43:56.892Z,85.55
2023-03-23T07:44:56.840Z,86.06
2023-03-23T07:45:59.181Z,85.86
2023-03-23T07:46:56.870Z,85.55
2023-03-23T07:47:56.778Z,85.55
2023-03-23T07:48:57.528Z,85.86
2023-03-23T07:49:56.778Z,85.86
2023-03-23T07:50:56.816Z,85.96
2023-03-23T07:51:56.841Z,85.25
2023-03-23T07:52:57.224Z,85.66
2023-03-23T07:53:56.730Z,85.96
2023-03-23T07:54:56.797Z,84.64
2023-03-23T07:55:56.754Z,85.00
2023-03-23T07:56:56.712Z,84.39
2023-03-23T07:57:57.434Z,84.80
2023-03-23T07:58:56.958Z,84.80
2023-03-23T07:59:56.914Z,84.39
2023-03-23T08:00:56.795Z,84.39
2023-03-23T08:01:56.991Z,84.19
2023-03-23T08:02:57.032Z,84.50
2023-03-23T08:03:56.628Z,84.29
2023-03-23T08:04:56.832Z,84.23
2023-03-23T08:05:56.628Z,84.43
2023-03-23T08:06:56.755Z,84.33
2023-03-23T08:07:57.154Z,84.33
2023-03-23T08:08:56.589Z,83.62
2023-03-23T08:09:57.050Z,84.03
2023-03-23T08:10:56.552Z,84.33
2023-03-23T08:11:56.540Z,84.84
2023-03-23T08:12:56.546Z,85.45
2023-03-23T08:13:56.867Z,85.14
2023-03-23T08:14:56.506Z,87.18
2023-03-23T08:15:56.505Z,85.86
2023-03-23T08:16:56.686Z,85.86
2023-03-23T08:17:56.754Z,85.05
2023-03-23T08:18:56.690Z,84.94
2023-03-23T08:19:56.454Z,84.94
2023-03-23T08:20:56.463Z,85.35
2023-03-23T08:21:56.690Z,85.31
2023-03-23T08:22:56.565Z,84.70
2023-03-23T08:23:56.422Z,84.80
2023-03-23T08:24:56.429Z,85.00
2023-03-23T08:25:56.411Z,85.21
2023-03-23T08:26:56.387Z,85.61
2023-03-23T08:27:56.400Z,84.50
2023-03-23T08:28:56.403Z,85.11
2023-03-23T08:29:56.451Z,84.59
2023-03-23T08:30:56.331Z,84.19
2023-03-23T08:31:56.333Z,84.29
2023-03-23T08:32:56.692Z,84.59
2023-03-23T08:33:56.363Z,83.78
2023-03-23T08:34:56.340Z,83.68
2023-03-23T08:35:56.436Z,83.44
2023-03-23T08:36:56.296Z,83.84
2023-03-23T08:37:56.265Z,83.48
2023-03-23T08:38:56.577Z,84.19
2023-03-23T08:39:56.580Z,83.89
2023-03-23T08:40:56.241Z,84.19
2023-03-23T08:41:56.214Z,84.90
2023-03-23T08:43:01.068Z,84.84
2023-03-23T08:43:56.203Z,85.25
2023-03-23T08:44:56.262Z,85.86
2023-03-23T08:45:56.252Z,85.75
2023-03-23T08:46:56.198Z,85.45
2023-03-23T08:47:56.163Z,86.47
2023-03-23T08:48:56.148Z,86.37
2023-03-23T08:49:56.143Z,85.66
2023-03-23T08:50:56.132Z,85.66
2023-03-23T08:51:56.144Z,86.98
2023-03-23T08:52:56.101Z,87.18
2023-03-23T08:53:56.106Z,87.08
2023-03-23T08:54:56.087Z,87.23
2023-03-23T08:55:56.167Z,87.32
2023-03-23T08:56:56.075Z,88.14
2023-03-23T08:57:56.081Z,88.79
2023-03-23T08:58:56.582Z,89.92
2023-03-23T08:59:56.029Z,90.94
2023-03-23T09:00:56.965Z,92.10
2023-03-23T09:01:56.011Z,93.73
2023-03-23T09:02:55.993Z,94.70
2023-03-23T09:03:56.266Z,95.00
2023-03-23T09:04:56.024Z,96.06
2023-03-23T09:05:56.005Z,96.78
2023-03-23T09:06:56.506Z,97.80
2023-03-23T09:07:56.099Z,98.25
2023-03-23T09:08:56.041Z,98.46
2023-03-23T09:09:55.952Z,98.97
2023-03-23T09:10:55.977Z,98.97
2023-03-23T09:11:56.334Z,99.38
2023-03-23T09:12:55.895Z,99.73
2023-03-23T09:13:55.882Z,99.99
2023-03-23T09:14:55.879Z,99.99
2023-03-23T09:15:56.128Z,99.99
2023-03-23T09:16:56.073Z,99.99
2023-03-23T09:17:55.855Z,99.99
2023-03-23T09:18:55.842Z,99.99
2023-03-23T09:19:55.843Z,97.31
2023-03-23T09:20:55.951Z,96.33
2023-03-23T09:21:55.814Z,96.28
2023-03-23T09:22:55.792Z,97.30
2023-03-23T09:23:55.800Z,94.17
2023-03-23T09:24:55.983Z,95.29
2023-03-23T09:25:55.767Z,95.50
2023-03-23T09:26:55.763Z,94.73
2023-03-23T09:27:55.746Z,94.62
2023-03-23T09:28:55.729Z,95.24
2023-03-23T09:29:55.720Z,96.06
2023-03-23T09:30:55.716Z,96.88
2023-03-23T09:31:55.713Z,97.44
2023-03-23T09:32:55.723Z,98.46
2023-03-23T09:33:55.730Z,98.57
2023-03-23T09:34:55.767Z,99.28
2023-03-23T09:35:55.670Z,98.97
2023-03-23T09:36:57.265Z,99.65
2023-03-23T09:37:55.660Z,99.99
2023-03-23T09:38:55.661Z,99.99
2023-03-23T09:39:55.630Z,99.99
2023-03-23T09:40:55.758Z,99.85
2023-03-23T09:41:55.618Z,99.95
2023-03-23T09:42:55.594Z,99.99
2023-03-23T09:43:55.581Z,99.99
2023-03-23T09:44:55.583Z,99.99
2023-03-23T09:45:55.621Z,99.99
2023-03-23T09:46:55.543Z,99.99
2023-03-23T09:47:55.562Z,99.99
2023-03-23T09:48:55.579Z,99.99
2023-03-23T09:49:55.579Z,99.99
2023-03-23T09:50:55.493Z,99.99
2023-03-23T09:51:55.523Z,99.99
2023-03-23T09:52:55.509Z,99.99
2023-03-23T09:53:55.509Z,99.99
2023-03-23T09:54:55.542Z,99.99
2023-03-23T09:55:55.454Z,99.99
2023-03-23T09:56:55.709Z,99.99
2023-03-23T09:57:55.563Z,99.99
2023-03-23T09:58:55.411Z,99.99
2023-03-23T09:59:55.406Z,99.99
2023-03-23T10:00:55.635Z,99.99
2023-03-23T10:01:55.496Z,99.99
2023-03-23T10:02:55.376Z,99.99
2023-03-23T10:03:55.387Z,99.99
2023-03-23T10:04:55.382Z,99.99
2023-03-23T10:05:55.348Z,99.29
2023-03-23T10:06:55.322Z,99.99
2023-03-23T10:07:55.330Z,99.80
2023-03-23T10:08:57.511Z,99.60
2023-03-23T10:09:55.326Z,98.99
2023-03-23T10:10:55.347Z,99.96
2023-03-23T10:11:55.295Z,98.83
2023-03-23T10:12:55.386Z,99.86
2023-03-23T10:13:55.930Z,99.96
2023-03-23T10:14:55.373Z,99.55
2023-03-23T10:15:55.291Z,98.02
2023-03-23T10:16:55.274Z,96.99
2023-03-23T10:17:55.306Z,97.40
2023-03-23T10:18:55.367Z,97.71
2023-03-23T10:19:55.241Z,97.30
2023-03-23T10:20:55.210Z,97.91
2023-03-23T10:21:55.531Z,95.97
2023-03-23T10:22:55.171Z,95.72
2023-03-23T10:23:55.163Z,96.13
2023-03-23T10:24:55.132Z,96.29
2023-03-23T10:25:55.153Z,97.11
2023-03-23T10:26:55.225Z,95.47
2023-03-23T10:27:55.164Z,96.59
2023-03-23T10:28:55.190Z,96.08
2023-03-23T10:29:55.155Z,94.59
2023-03-23T10:30:55.304Z,95.10
2023-03-23T10:31:55.204Z,95.31
2023-03-23T10:32:55.052Z,95.51
2023-03-23T10:33:55.164Z,95.82
2023-03-23T10:34:55.070Z,95.41
2023-03-23T10:35:55.157Z,95.92
2023-03-23T10:36:55.116Z,95.21
2023-03-23T10:37:55.598Z,95.41
2023-03-23T10:38:55.007Z,95.21
2023-03-23T10:39:54.992Z,95.72
2023-03-23T10:40:55.012Z,95.78
2023-03-23T10:41:55.000Z,97.00
2023-03-23T10:42:54.955Z,96.49
2023-03-23T10:43:54.956Z,96.49
2023-03-23T10:44:55.089Z,95.37
2023-03-23T10:46:00.592Z,94.24
2023-03-23T10:46:54.958Z,94.20
2023-03-23T10:47:54.915Z,94.40
2023-03-23T10:48:54.885Z,93.38
2023-03-23T10:49:54.937Z,93.18
2023-03-23T10:50:54.898Z,93.28
2023-03-23T10:51:55.683Z,94.81
2023-03-23T10:52:54.852Z,95.32
2023-03-23T10:53:54.973Z,94.34
2023-03-23T10:54:54.925Z,93.12
2023-03-23T10:55:54.876Z,93.32
2023-03-23T10:56:59.762Z,93.01
2023-03-23T10:57:54.940Z,94.04
2023-03-23T10:58:54.838Z,94.04
2023-03-23T10:59:54.851Z,94.65
2023-03-23T11:00:54.768Z,93.01
2023-03-23T11:01:54.762Z,94.65
2023-03-23T11:02:54.770Z,92.71
2023-03-23T11:03:54.850Z,93.52
2023-03-23T11:04:54.773Z,94.14
2023-03-23T11:05:54.723Z,95.06
2023-03-23T11:06:55.070Z,92.71
2023-03-23T11:07:54.721Z,93.84
2023-03-23T11:08:54.923Z,93.22
2023-03-23T11:09:54.669Z,91.58
2023-03-23T11:10:54.731Z,92.60
2023-03-23T11:12:01.927Z,93.43
2023-03-23T11:12:54.669Z,90.86
2023-03-23T11:13:54.637Z,91.69
2023-03-23T11:14:55.500Z,91.07
2023-03-23T11:15:54.615Z,92.30
2023-03-23T11:16:56.326Z,93.32
2023-03-23T11:17:54.683Z,93.32
2023-03-23T11:18:54.799Z,93.22
2023-03-23T11:19:54.610Z,92.81
2023-03-23T11:20:54.640Z,92.60
2023-03-23T11:21:54.643Z,92.25
2023-03-23T11:22:54.536Z,91.33
2023-03-23T11:24:07.246Z,91.50
2023-03-23T11:24:54.524Z,91.05
2023-03-23T11:25:54.769Z,88.85
2023-03-23T11:26:58.934Z,87.92
2023-03-23T11:27:54.767Z,85.17
2023-03-23T11:28:54.469Z,81.37
2023-03-23T11:29:58.425Z,81.33
2023-03-23T11:30:55.599Z,78.92
2023-03-23T11:31:54.492Z,80.45
2023-03-23T11:32:55.139Z,82.07
2023-03-23T11:34:05.541Z,81.37
2023-03-23T11:34:55.516Z,79.94
2023-03-23T11:35:54.433Z,81.98
2023-03-23T11:36:54.387Z,81.37
2023-03-23T11:37:54.394Z,78.11
2023-03-23T11:38:54.383Z,79.80
2023-03-23T11:39:54.477Z,82.00
2023-03-23T11:40:54.409Z,78.78
2023-03-23T11:42:06.815Z,77.76
2023-03-23T11:42:55.025Z,81.05
2023-03-23T11:43:54.318Z,77.80
2023-03-23T11:44:54.317Z,79.42
2023-03-23T11:45:54.337Z,77.97
2023-03-23T11:46:54.309Z,78.58
2023-03-23T11:47:54.286Z,80.41
2023-03-23T11:48:54.273Z,79.43
2023-03-23T11:49:54.777Z,80.15
2023-03-23T11:50:54.656Z,80.85
2023-03-23T11:51:54.253Z,82.57
2023-03-23T11:52:54.215Z,79.14
2023-03-23T11:53:54.203Z,78.09
2023-03-23T11:54:54.254Z,76.67
2023-03-23T11:55:54.273Z,76.27
2023-03-23T11:56:54.206Z,74.58
2023-03-23T11:57:54.166Z,77.62
2023-03-23T11:58:54.177Z,75.83
2023-03-23T11:59:54.158Z,78.64
2023-03-23T12:00:54.126Z,76.24
2023-03-23T12:01:54.167Z,78.51
2023-03-23T12:02:54.178Z,78.94
2023-03-23T12:03:54.575Z,77.52
2023-03-23T12:04:54.086Z,77.56
2023-03-23T12:05:54.129Z,77.19
2023-03-23T12:06:54.099Z,78.00
2023-03-23T12:07:54.098Z,78.24
2023-03-23T12:08:54.062Z,78.78
2023-03-23T12:09:54.037Z,79.90
2023-03-23T12:14:58.942Z,80.31
2023-03-23T12:15:04.023Z,75.39
2023-03-23T12:15:09.448Z,72.28
2023-03-23T12:16:09.451Z,74.24
2023-03-23T12:17:12.147Z,72.04
2023-03-23T12:18:10.014Z,67.16
2023-03-23T12:19:09.422Z,64.51
2023-03-23T12:20:10.156Z,64.05
2023-03-23T12:21:09.698Z,62.44
2023-03-23T12:22:09.595Z,61.67
2023-03-23T12:23:09.558Z,60.67
2023-03-23T12:24:09.373Z,61.17
2023-03-23T12:25:09.438Z,61.90
2023-03-23T12:26:09.306Z,60.74
2023-03-23T12:27:09.343Z,60.94
2023-03-23T12:28:09.580Z,60.24
2023-03-23T12:29:09.397Z,60.16
2023-03-23T12:30:09.255Z,65.24
2023-03-23T12:31:09.396Z,68.02
2023-03-23T12:32:09.274Z,71.53
2023-03-23T12:33:09.263Z,72.78
2023-03-23T12:34:09.506Z,74.34
2023-03-23T12:35:09.204Z,75.59
2023-03-23T12:36:09.197Z,77.05
2023-03-23T12:37:09.182Z,78.00
2023-03-23T12:38:09.170Z,77.53
2023-03-23T12:39:09.672Z,79.90
2023-03-23T12:40:09.506Z,80.51
2023-03-23T12:41:09.420Z,79.70
2023-03-23T12:42:09.569Z,80.21
2023-03-23T12:43:09.154Z,80.35
2023-03-23T12:44:09.196Z,80.18
2023-03-23T12:45:09.265Z,80.90
2023-03-23T12:46:09.123Z,80.85
2023-03-23T12:47:09.073Z,80.00
2023-03-23T12:48:09.066Z,79.56
2023-03-23T12:49:09.049Z,75.56
2023-03-23T12:50:09.316Z,70.56
2023-03-23T12:51:09.044Z,67.33
2023-03-23T12:52:09.221Z,68.71
2023-03-23T12:53:09.007Z,64.92
2023-03-23T12:54:09.000Z,62.75